sensor_id;sensor_type;location;lat;lon;timestamp;pressure;altitude;pressure_sealevel;temperature;humidity
67345;BME280;54230;52.402;6.276;2023-03-13T00:00:00;100240.0;;;11.1;82.6
67345;BME280;54230;52.402;6.276;2023-03-13T00:05:00;100230.0;;;11.1;83.4
67345;BME280;54230;52.402;6.276;2023-03-13T00:10:00;100210.0;;;11.1;84.3
67345;BME280;54230;52.402;6.276;2023-03-13T00:15:00;100200.0;;;11.0;85.1
67345;BME280;54230;52.402;6.276;2023-03-13T00:20:00;100190.0;;;10.9;86.1
67345;BME280;54230;52.402;6.276;2023-03-13T00:25:00;100190.0;;;10.9;86.5
67345;BME280;54230;52.402;6.276;2023-03-13T00:30:00;100170.0;;;10.9;86.9
67345;BME280;54230;52.402;6.276;2023-03-13T00:35:00;100150.0;;;10.9;87.4
67345;BME280;54230;52.402;6.276;2023-03-13T00:40:00;100140.0;;;10.9;87.6
67345;BME280;54230;52.402;6.276;2023-03-13T00:45:00;100130.0;;;10.7;88.1
67345;BME280;54230;52.402;6.276;2023-03-13T00:50:00;100120.0;;;10.8;88.6
67345;BME280;54230;52.402;6.276;2023-03-13T00:55:00;100110.0;;;10.8;88.4
67345;BME280;54230;52.402;6.276;2023-03-13T01:00:00;100090.0;;;10.9;88.4
67345;BME280;54230;52.402;6.276;2023-03-13T01:05:00;100070.0;;;10.9;88.5
67345;BME280;54230;52.402;6.276;2023-03-13T01:10:00;100060.0;;;10.8;89.3
67345;BME280;54230;52.402;6.276;2023-03-13T01:15:00;100050.0;;;10.6;90.1
67345;BME280;54230;52.402;6.276;2023-03-13T01:20:00;100030.0;;;10.6;91.1
67345;BME280;54230;52.402;6.276;2023-03-13T01:25:00;100020.0;;;10.4;92.1
67345;BME280;54230;52.402;6.276;2023-03-13T01:30:00;100000.0;;;10.4;93.2
67345;BME280;54230;52.402;6.276;2023-03-13T01:35:00;99970.0;;;10.4;94.1
67345;BME280;54230;52.402;6.276;2023-03-13T01:40:00;99970.0;;;10.4;94.7
67345;BME280;54230;52.402;6.276;2023-03-13T01:45:00;99960.0;;;10.3;95.6
67345;BME280;54230;52.402;6.276;2023-03-13T01:50:00;99950.0;;;10.3;96.4
67345;BME280;54230;52.402;6.276;2023-03-13T01:55:04;99920.0;;;10.4;96.9
67345;BME280;54230;52.402;6.276;2023-03-13T02:00:02;99910.0;;;10.2;97.6
67345;BME280;54230;52.402;6.276;2023-03-13T02:05:02;99890.0;;;10.3;98.5
67345;BME280;54230;52.402;6.276;2023-03-13T02:10:00;99880.0;;;10.3;98.9
67345;BME280;54230;52.402;6.276;2023-03-13T02:15:02;99870.0;;;10.3;99.3
67345;BME280;54230;52.402;6.276;2023-03-13T02:20:00;99850.0;;;10.4;99.7
67345;BME280;54230;52.402;6.276;2023-03-13T02:25:05;99830.0;;;10.5;100.0
67345;BME280;54230;52.402;6.276;2023-03-13T02:30:00;99820.0;;;10.5;100.0
67345;BME280;54230;52.402;6.276;2023-03-13T02:35:03;99810.0;;;10.6;100.0
67345;BME280;54230;52.402;6.276;2023-03-13T02:40:03;99790.0;;;10.7;100.0
67345;BME280;54230;52.402;6.276;2023-03-13T02:45:00;99780.0;;;10.6;100.0
67345;BME280;54230;52.402;6.276;2023-03-13T02:50:00;99760.0;;;10.6;100.0
67345;BME280;54230;52.402;6.276;2023-03-13T02:55:03;99730.0;;;10.6;100.0
67345;BME280;54230;52.402;6.276;2023-03-13T03:00:00;99740.0;;;10.7;100.0
67345;BME280;54230;52.402;6.276;2023-03-13T03:05:00;99740.0;;;10.8;100.0
67345;BME280;54230;52.402;6.276;2023-03-13T03:10:00;99740.0;;;10.9;100.0
67345;BME280;54230;52.402;6.276;2023-03-13T03:15:00;99720.0;;;10.9;100.0
67345;BME280;54230;52.402;6.276;2023-03-13T03:20:00;99710.0;;;11.0;100.0
67345;BME280;54230;52.402;6.276;2023-03-13T03:25:00;99700.0;;;11.1;100.0
67345;BME280;54230;52.402;6.276;2023-03-13T03:30:00;99700.0;;;11.0;100.0
67345;BME280;54230;52.402;6.276;2023-03-13T03:35:00;99700.0;;;11.1;100.0
67345;BME280;54230;52.402;6.276;2023-03-13T03:40:00;99700.0;;;11.1;100.0
67345;BME280;54230;52.402;6.276;2023-03-13T03:45:00;99690.0;;;11.2;100.0
67345;BME280;54230;52.402;6.276;2023-03-13T03:50:00;99690.0;;;11.3;100.0
67345;BME280;54230;52.402;6.276;2023-03-13T03:55:00;99690.0;;;11.3;100.0
67345;BME280;54230;52.402;6.276;2023-03-13T04:00:00;99690.0;;;11.4;100.0
67345;BME280;54230;52.402;6.276;2023-03-13T04:05:00;99680.0;;;11.5;100.0
67345;BME280;54230;52.402;6.276;2023-03-13T04:10:00;99690.0;;;11.6;100.0
67345;BME280;54230;52.402;6.276;2023-03-13T04:15:00;99680.0;;;11.7;100.0
67345;BME280;54230;52.402;6.276;2023-03-13T04:20:00;99670.0;;;11.8;100.0
67345;BME280;54230;52.402;6.276;2023-03-13T04:25:00;99680.0;;;11.9;100.0
67345;BME280;54230;52.402;6.276;2023-03-13T04:30:00;99680.0;;;11.9;100.0
67345;BME280;54230;52.402;6.276;2023-03-13T04:35:00;99670.0;;;12.0;100.0
67345;BME280;54230;52.402;6.276;2023-03-13T04:40:00;99660.0;;;12.1;100.0
67345;BME280;54230;52.402;6.276;2023-03-13T04:45:00;99650.0;;;12.2;100.0
67345;BME280;54230;52.402;6.276;2023-03-13T04:50:00;99640.0;;;12.2;100.0
67345;BME280;54230;52.402;6.276;2023-03-13T04:55:00;99630.0;;;12.3;100.0
67345;BME280;54230;52.402;6.276;2023-03-13T05:00:00;99620.0;;;12.4;100.0
67345;BME280;54230;52.402;6.276;2023-03-13T05:05:00;99620.0;;;12.5;100.0
67345;BME280;54230;52.402;6.276;2023-03-13T05:10:00;99600.0;;;12.5;100.0
67345;BME280;54230;52.402;6.276;2023-03-13T05:15:00;99600.0;;;12.6;100.0
67345;BME280;54230;52.402;6.276;2023-03-13T05:20:00;99600.0;;;12.7;100.0
67345;BME280;54230;52.402;6.276;2023-03-13T05:25:00;99580.0;;;12.8;100.0
67345;BME280;54230;52.402;6.276;2023-03-13T05:30:00;99570.0;;;12.9;100.0
67345;BME280;54230;52.402;6.276;2023-03-13T05:35:00;99580.0;;;13.0;100.0
67345;BME280;54230;52.402;6.276;2023-03-13T05:40:00;99580.0;;;13.1;100.0
67345;BME280;54230;52.402;6.276;2023-03-13T05:45:00;99580.0;;;13.1;100.0
67345;BME280;54230;52.402;6.276;2023-03-13T05:50:00;99580.0;;;13.1;100.0
67345;BME280;54230;52.402;6.276;2023-03-13T05:55:00;99570.0;;;13.2;100.0
67345;BME280;54230;52.402;6.276;2023-03-13T06:00:00;99570.0;;;13.3;100.0
67345;BME280;54230;52.402;6.276;2023-03-13T06:05:00;99580.0;;;13.3;100.0
67345;BME280;54230;52.402;6.276;2023-03-13T06:10:00;99580.0;;;13.2;100.0
67345;BME280;54230;52.402;6.276;2023-03-13T06:15:00;99580.0;;;13.4;100.0
67345;BME280;54230;52.402;6.276;2023-03-13T06:20:00;99570.0;;;13.4;100.0
67345;BME280;54230;52.402;6.276;2023-03-13T06:25:00;99570.0;;;13.5;100.0
67345;BME280;54230;52.402;6.276;2023-03-13T06:30:00;99560.0;;;13.5;100.0
67345;BME280;54230;52.402;6.276;2023-03-13T06:35:00;99560.0;;;13.6;100.0
67345;BME280;54230;52.402;6.276;2023-03-13T06:40:00;99560.0;;;13.7;100.0
67345;BME280;54230;52.402;6.276;2023-03-13T06:45:00;99540.0;;;13.7;97.8
67345;BME280;54230;52.402;6.276;2023-03-13T06:50:00;99540.0;;;13.8;97.1
67345;BME280;54230;52.402;6.276;2023-03-13T06:55:00;99540.0;;;13.8;95.9
67345;BME280;54230;52.402;6.276;2023-03-13T07:00:00;99550.0;;;13.9;94.9
67345;BME280;54230;52.402;6.276;2023-03-13T07:05:00;99530.0;;;13.9;94.1
67345;BME280;54230;52.402;6.276;2023-03-13T07:10:00;99540.0;;;13.9;93.6
67345;BME280;54230;52.402;6.276;2023-03-13T07:15:01;99540.0;;;13.9;93.4
67345;BME280;54230;52.402;6.276;2023-03-13T07:20:00;99530.0;;;13.9;93.4
67345;BME280;54230;52.402;6.276;2023-03-13T07:25:00;99540.0;;;14.0;93.3
67345;BME280;54230;52.402;6.276;2023-03-13T07:30:00;99540.0;;;14.0;93.1
67345;BME280;54230;52.402;6.276;2023-03-13T07:35:00;99530.0;;;14.0;92.8
67345;BME280;54230;52.402;6.276;2023-03-13T07:40:00;99540.0;;;14.1;92.1
67345;BME280;54230;52.402;6.276;2023-03-13T07:45:00;99540.0;;;14.1;92.1
67345;BME280;54230;52.402;6.276;2023-03-13T07:50:00;99540.0;;;14.1;91.6
67345;BME280;54230;52.402;6.276;2023-03-13T07:55:00;99540.0;;;14.2;91.2
67345;BME280;54230;52.402;6.276;2023-03-13T08:00:00;99550.0;;;14.1;91.4
67345;BME280;54230;52.402;6.276;2023-03-13T08:05:00;99550.0;;;14.1;91.8
67345;BME280;54230;52.402;6.276;2023-03-13T08:10:00;99560.0;;;14.1;91.7
67345;BME280;54230;52.402;6.276;2023-03-13T08:15:00;99550.0;;;14.2;91.7
67345;BME280;54230;52.402;6.276;2023-03-13T08:20:00;99570.0;;;14.1;92.1
67345;BME280;54230;52.402;6.276;2023-03-13T08:25:00;99560.0;;;14.1;92.8
67345;BME280;54230;52.402;6.276;2023-03-13T08:30:00;99570.0;;;14.1;93.4
67345;BME280;54230;52.402;6.276;2023-03-13T08:35:00;99560.0;;;14.2;93.2
67345;BME280;54230;52.402;6.276;2023-03-13T08:40:00;99550.0;;;14.2;92.8
67345;BME280;54230;52.402;6.276;2023-03-13T08:45:00;99540.0;;;14.3;92.7
67345;BME280;54230;52.402;6.276;2023-03-13T08:50:00;99530.0;;;14.5;92.3
67345;BME280;54230;52.402;6.276;2023-03-13T08:55:00;99530.0;;;14.6;91.3
67345;BME280;54230;52.402;6.276;2023-03-13T09:00:00;99530.0;;;14.6;90.6
67345;BME280;54230;52.402;6.276;2023-03-13T09:05:00;99530.0;;;14.4;91.4
67345;BME280;54230;52.402;6.276;2023-03-13T09:10:00;99530.0;;;14.5;93.0
67345;BME280;54230;52.402;6.276;2023-03-13T09:15:00;99520.0;;;14.6;93.1
67345;BME280;54230;52.402;6.276;2023-03-13T09:20:00;99520.0;;;14.4;93.4
67345;BME280;54230;52.402;6.276;2023-03-13T09:25:00;99520.0;;;14.5;93.1
67345;BME280;54230;52.402;6.276;2023-03-13T09:30:00;99520.0;;;14.4;93.4
67345;BME280;54230;52.402;6.276;2023-03-13T09:35:00;99500.0;;;14.4;93.4
67345;BME280;54230;52.402;6.276;2023-03-13T09:40:00;99490.0;;;14.6;92.3
67345;BME280;54230;52.402;6.276;2023-03-13T09:45:06;99490.0;;;14.8;90.4
67345;BME280;54230;52.402;6.276;2023-03-13T09:50:04;99480.0;;;14.9;88.9
67345;BME280;54230;52.402;6.276;2023-03-13T09:55:03;99470.0;;;15.0;85.9
67345;BME280;54230;52.402;6.276;2023-03-13T10:00:04;99480.0;;;15.2;85.4
67345;BME280;54230;52.402;6.276;2023-03-13T10:05:05;99440.0;;;15.5;82.7
67345;BME280;54230;52.402;6.276;2023-03-13T10:10:00;99450.0;;;15.8;80.7
67345;BME280;54230;52.402;6.276;2023-03-13T10:15:15;99450.0;;;16.0;78.8
67345;BME280;54230;52.402;6.276;2023-03-13T10:20:10;99440.0;;;16.0;76.1
67345;BME280;54230;52.402;6.276;2023-03-13T10:25:03;99410.0;;;16.1;75.3
67345;BME280;54230;52.402;6.276;2023-03-13T10:30:00;99410.0;;;16.3;74.6
67345;BME280;54230;52.402;6.276;2023-03-13T10:35:00;99400.0;;;16.5;73.5
67345;BME280;54230;52.402;6.276;2023-03-13T10:40:11;99400.0;;;16.5;72.4
67345;BME280;54230;52.402;6.276;2023-03-13T10:45:04;99380.0;;;16.6;70.8
67345;BME280;54230;52.402;6.276;2023-03-13T10:50:01;99390.0;;;16.6;70.5
67345;BME280;54230;52.402;6.276;2023-03-13T10:55:02;99370.0;;;16.8;68.2
67345;BME280;54230;52.402;6.276;2023-03-13T11:00:04;99380.0;;;17.1;67.8
67345;BME280;54230;52.402;6.276;2023-03-13T11:05:01;99370.0;;;17.2;66.3
67345;BME280;54230;52.402;6.276;2023-03-13T11:10:05;99380.0;;;17.5;66.0
67345;BME280;54230;52.402;6.276;2023-03-13T11:15:01;99360.0;;;17.4;64.8
67345;BME280;54230;52.402;6.276;2023-03-13T11:20:07;99380.0;;;17.5;65.4
67345;BME280;54230;52.402;6.276;2023-03-13T11:25:09;99360.0;;;17.3;63.5
67345;BME280;54230;52.402;6.276;2023-03-13T11:30:07;99350.0;;;17.5;62.1
67345;BME280;54230;52.402;6.276;2023-03-13T11:35:03;99340.0;;;17.4;60.2
67345;BME280;54230;52.402;6.276;2023-03-13T11:40:08;99340.0;;;17.2;60.1
67345;BME280;54230;52.402;6.276;2023-03-13T11:45:04;99340.0;;;17.3;58.1
67345;BME280;54230;52.402;6.276;2023-03-13T11:50:06;99320.0;;;17.4;56.9
67345;BME280;54230;52.402;6.276;2023-03-13T11:55:10;99330.0;;;17.5;56.7
67345;BME280;54230;52.402;6.276;2023-03-13T12:00:14;99320.0;;;17.6;57.0
67345;BME280;54230;52.402;6.276;2023-03-13T12:05:03;99320.0;;;17.7;57.4
67345;BME280;54230;52.402;6.276;2023-03-13T12:10:02;99310.0;;;18.0;57.2
67345;BME280;54230;52.402;6.276;2023-03-13T12:15:05;99300.0;;;18.4;57.2
67345;BME280;54230;52.402;6.276;2023-03-13T12:20:04;99320.0;;;18.6;56.0
67345;BME280;54230;52.402;6.276;2023-03-13T12:25:02;99300.0;;;18.5;56.5
67345;BME280;54230;52.402;6.276;2023-03-13T12:30:03;99280.0;;;18.6;56.9
67345;BME280;54230;52.402;6.276;2023-03-13T12:35:07;99300.0;;;18.5;57.1
67345;BME280;54230;52.402;6.276;2023-03-13T12:40:03;99280.0;;;18.0;59.2
67345;BME280;54230;52.402;6.276;2023-03-13T12:45:00;99270.0;;;17.9;60.1
67345;BME280;54230;52.402;6.276;2023-03-13T12:50:16;99250.0;;;18.1;57.9
67345;BME280;54230;52.402;6.276;2023-03-13T13:00:00;99270.0;;;18.7;52.5
67345;BME280;54230;52.402;6.276;2023-03-13T13:05:01;99230.0;;;18.7;51.0
67345;BME280;54230;52.402;6.276;2023-03-13T13:10:14;99240.0;;;18.7;48.5
67345;BME280;54230;52.402;6.276;2023-03-13T13:15:10;99260.0;;;18.4;48.5
67345;BME280;54230;52.402;6.276;2023-03-13T13:25:01;99250.0;;;18.5;48.8
67345;BME280;54230;52.402;6.276;2023-03-13T13:30:01;99230.0;;;18.5;49.3
67345;BME280;54230;52.402;6.276;2023-03-13T13:35:01;99240.0;;;18.5;49.5
67345;BME280;54230;52.402;6.276;2023-03-13T13:40:18;99240.0;;;18.5;49.0
67345;BME280;54230;52.402;6.276;2023-03-13T13:45:01;99220.0;;;18.3;49.0
67345;BME280;54230;52.402;6.276;2023-03-13T13:50:00;99210.0;;;18.6;49.3
67345;BME280;54230;52.402;6.276;2023-03-13T13:55:01;99220.0;;;18.6;48.8
67345;BME280;54230;52.402;6.276;2023-03-13T14:00:13;99210.0;;;18.5;48.7
67345;BME280;54230;52.402;6.276;2023-03-13T14:05:03;99200.0;;;18.6;49.2
67345;BME280;54230;52.402;6.276;2023-03-13T14:10:06;99210.0;;;18.6;50.0
67345;BME280;54230;52.402;6.276;2023-03-13T14:15:12;99210.0;;;18.5;50.7
67345;BME280;54230;52.402;6.276;2023-03-13T14:20:00;99200.0;;;18.7;50.6
67345;BME280;54230;52.402;6.276;2023-03-13T14:25:00;99210.0;;;18.7;49.5
67345;BME280;54230;52.402;6.276;2023-03-13T14:30:00;99210.0;;;18.9;49.2
67345;BME280;54230;52.402;6.276;2023-03-13T14:35:00;99180.0;;;19.0;47.4
67345;BME280;54230;52.402;6.276;2023-03-13T14:40:04;99210.0;;;18.8;46.8
67345;BME280;54230;52.402;6.276;2023-03-13T14:45:12;99200.0;;;19.0;44.5
67345;BME280;54230;52.402;6.276;2023-03-13T14:50:02;99190.0;;;19.0;44.3
67345;BME280;54230;52.402;6.276;2023-03-13T14:55:02;99180.0;;;19.0;44.7
67345;BME280;54230;52.402;6.276;2023-03-13T15:00:23;99190.0;;;19.0;44.4
67345;BME280;54230;52.402;6.276;2023-03-13T15:05:02;99170.0;;;18.9;44.1
67345;BME280;54230;52.402;6.276;2023-03-13T15:10:00;99170.0;;;18.9;44.8
67345;BME280;54230;52.402;6.276;2023-03-13T15:15:00;99160.0;;;18.8;45.3
67345;BME280;54230;52.402;6.276;2023-03-13T15:20:00;99160.0;;;18.8;45.4
67345;BME280;54230;52.402;6.276;2023-03-13T15:25:00;99160.0;;;18.8;45.4
67345;BME280;54230;52.402;6.276;2023-03-13T15:30:00;99140.0;;;18.7;45.6
67345;BME280;54230;52.402;6.276;2023-03-13T15:35:00;99150.0;;;18.6;45.6
67345;BME280;54230;52.402;6.276;2023-03-13T15:40:00;99140.0;;;18.6;45.7
67345;BME280;54230;52.402;6.276;2023-03-13T15:45:00;99140.0;;;18.7;45.5
67345;BME280;54230;52.402;6.276;2023-03-13T15:50:00;99140.0;;;18.6;46.1
67345;BME280;54230;52.402;6.276;2023-03-13T15:55:00;99150.0;;;18.7;46.4
67345;BME280;54230;52.402;6.276;2023-03-13T16:00:00;99140.0;;;18.7;46.7
67345;BME280;54230;52.402;6.276;2023-03-13T16:05:00;99120.0;;;18.5;46.4
67345;BME280;54230;52.402;6.276;2023-03-13T16:10:00;99130.0;;;18.4;46.5
67345;BME280;54230;52.402;6.276;2023-03-13T16:15:00;99110.0;;;18.3;46.7
67345;BME280;54230;52.402;6.276;2023-03-13T16:20:00;99120.0;;;18.2;47.2
67345;BME280;54230;52.402;6.276;2023-03-13T16:25:00;99120.0;;;18.2;47.7
67345;BME280;54230;52.402;6.276;2023-03-13T16:30:00;99120.0;;;18.0;47.5
67345;BME280;54230;52.402;6.276;2023-03-13T16:35:00;99110.0;;;17.9;48.4
67345;BME280;54230;52.402;6.276;2023-03-13T16:40:00;99110.0;;;17.9;48.7
67345;BME280;54230;52.402;6.276;2023-03-13T16:45:00;99100.0;;;17.7;49.0
67345;BME280;54230;52.402;6.276;2023-03-13T16:50:00;99090.0;;;17.6;49.5
67345;BME280;54230;52.402;6.276;2023-03-13T16:55:00;99090.0;;;17.3;50.1
67345;BME280;54230;52.402;6.276;2023-03-13T17:00:00;99090.0;;;17.1;50.7
67345;BME280;54230;52.402;6.276;2023-03-13T17:05:00;99090.0;;;16.9;51.8
67345;BME280;54230;52.402;6.276;2023-03-13T17:10:00;99100.0;;;16.8;51.9
67345;BME280;54230;52.402;6.276;2023-03-13T17:15:00;99100.0;;;16.6;52.5
67345;BME280;54230;52.402;6.276;2023-03-13T17:20:00;99090.0;;;16.6;53.0
67345;BME280;54230;52.402;6.276;2023-03-13T17:25:00;99090.0;;;16.4;53.9
67345;BME280;54230;52.402;6.276;2023-03-13T17:30:00;99090.0;;;16.3;54.8
67345;BME280;54230;52.402;6.276;2023-03-13T17:35:00;99110.0;;;16.2;55.0
67345;BME280;54230;52.402;6.276;2023-03-13T17:40:00;99110.0;;;16.0;55.4
67345;BME280;54230;52.402;6.276;2023-03-13T17:45:00;99130.0;;;15.9;55.6
67345;BME280;54230;52.402;6.276;2023-03-13T17:50:00;99130.0;;;15.6;56.0
67345;BME280;54230;52.402;6.276;2023-03-13T17:55:00;99130.0;;;15.6;56.1
67345;BME280;54230;52.402;6.276;2023-03-13T18:00:00;99120.0;;;15.4;56.5
67345;BME280;54230;52.402;6.276;2023-03-13T18:05:00;99120.0;;;15.3;57.1
67345;BME280;54230;52.402;6.276;2023-03-13T18:10:00;99130.0;;;15.2;57.7
67345;BME280;54230;52.402;6.276;2023-03-13T18:15:00;99130.0;;;15.3;57.9
67345;BME280;54230;52.402;6.276;2023-03-13T18:20:00;99120.0;;;15.3;57.6
67345;BME280;54230;52.402;6.276;2023-03-13T18:25:00;99130.0;;;15.1;58.0
67345;BME280;54230;52.402;6.276;2023-03-13T18:30:00;99120.0;;;15.1;58.3
67345;BME280;54230;52.402;6.276;2023-03-13T18:35:00;99120.0;;;14.9;58.5
67345;BME280;54230;52.402;6.276;2023-03-13T18:40:00;99100.0;;;14.7;59.1
67345;BME280;54230;52.402;6.276;2023-03-13T18:45:00;99110.0;;;14.6;59.1
67345;BME280;54230;52.402;6.276;2023-03-13T18:50:00;99090.0;;;14.6;59.6
67345;BME280;54230;52.402;6.276;2023-03-13T18:55:00;99070.0;;;14.6;59.8
67345;BME280;54230;52.402;6.276;2023-03-13T19:00:00;99070.0;;;14.5;60.2
67345;BME280;54230;52.402;6.276;2023-03-13T19:05:00;99070.0;;;14.5;60.5
67345;BME280;54230;52.402;6.276;2023-03-13T19:10:00;99040.0;;;14.5;60.7
67345;BME280;54230;52.402;6.276;2023-03-13T19:15:00;99040.0;;;14.6;60.7
67345;BME280;54230;52.402;6.276;2023-03-13T19:20:00;99030.0;;;14.5;60.7
67345;BME280;54230;52.402;6.276;2023-03-13T19:25:00;99030.0;;;14.3;61.2
67345;BME280;54230;52.402;6.276;2023-03-13T19:30:00;99040.0;;;14.0;61.6
67345;BME280;54230;52.402;6.276;2023-03-13T19:35:00;99040.0;;;14.0;62.1
67345;BME280;54230;52.402;6.276;2023-03-13T19:40:00;99040.0;;;14.2;62.3
67345;BME280;54230;52.402;6.276;2023-03-13T19:45:00;99040.0;;;14.3;61.7
67345;BME280;54230;52.402;6.276;2023-03-13T19:50:00;99030.0;;;14.3;62.5
67345;BME280;54230;52.402;6.276;2023-03-13T19:55:00;99030.0;;;14.2;61.7
67345;BME280;54230;52.402;6.276;2023-03-13T20:00:00;99020.0;;;13.9;62.4
67345;BME280;54230;52.402;6.276;2023-03-13T20:05:00;99030.0;;;13.8;63.4
67345;BME280;54230;52.402;6.276;2023-03-13T20:10:00;99030.0;;;13.7;63.3
67345;BME280;54230;52.402;6.276;2023-03-13T20:15:00;99040.0;;;13.7;63.4
67345;BME280;54230;52.402;6.276;2023-03-13T20:20:00;99030.0;;;13.7;64.0
67345;BME280;54230;52.402;6.276;2023-03-13T20:25:00;99020.0;;;13.7;64.0
67345;BME280;54230;52.402;6.276;2023-03-13T20:30:00;99020.0;;;13.5;64.5
67345;BME280;54230;52.402;6.276;2023-03-13T20:35:00;99010.0;;;13.2;65.5
67345;BME280;54230;52.402;6.276;2023-03-13T20:40:00;99010.0;;;13.1;66.0
67345;BME280;54230;52.402;6.276;2023-03-13T20:45:00;99000.0;;;13.0;66.5
67345;BME280;54230;52.402;6.276;2023-03-13T20:50:00;99000.0;;;12.9;66.8
67345;BME280;54230;52.402;6.276;2023-03-13T20:55:00;99000.0;;;12.9;67.0
67345;BME280;54230;52.402;6.276;2023-03-13T21:00:00;98990.0;;;12.9;67.1
67345;BME280;54230;52.402;6.276;2023-03-13T21:05:00;98970.0;;;12.9;67.1
67345;BME280;54230;52.402;6.276;2023-03-13T21:10:00;98960.0;;;12.9;67.2
67345;BME280;54230;52.402;6.276;2023-03-13T21:15:00;98970.0;;;12.9;67.5
67345;BME280;54230;52.402;6.276;2023-03-13T21:20:00;98970.0;;;12.8;67.7
67345;BME280;54230;52.402;6.276;2023-03-13T21:25:00;98970.0;;;12.8;68.1
67345;BME280;54230;52.402;6.276;2023-03-13T21:30:00;98960.0;;;12.9;67.7
67345;BME280;54230;52.402;6.276;2023-03-13T21:35:00;98960.0;;;12.8;67.6
67345;BME280;54230;52.402;6.276;2023-03-13T21:40:00;98950.0;;;12.8;67.5
67345;BME280;54230;52.402;6.276;2023-03-13T21:45:00;98960.0;;;12.8;67.5
67345;BME280;54230;52.402;6.276;2023-03-13T21:50:00;98960.0;;;12.7;67.6
67345;BME280;54230;52.402;6.276;2023-03-13T21:55:00;98940.0;;;12.7;67.8
67345;BME280;54230;52.402;6.276;2023-03-13T22:00:00;98940.0;;;12.7;67.9
67345;BME280;54230;52.402;6.276;2023-03-13T22:05:00;98930.0;;;12.7;67.8
67345;BME280;54230;52.402;6.276;2023-03-13T22:10:00;98920.0;;;12.8;67.7
67345;BME280;54230;52.402;6.276;2023-03-13T22:15:00;98920.0;;;12.9;67.6
67345;BME280;54230;52.402;6.276;2023-03-13T22:20:00;98930.0;;;12.9;67.2
67345;BME280;54230;52.402;6.276;2023-03-13T22:25:01;98910.0;;;13.0;67.4
67345;BME280;54230;52.402;6.276;2023-03-13T22:30:00;98900.0;;;13.1;66.3
67345;BME280;54230;52.402;6.276;2023-03-13T22:35:00;98890.0;;;13.1;66.2
67345;BME280;54230;52.402;6.276;2023-03-13T22:40:00;98890.0;;;13.3;66.0
67345;BME280;54230;52.402;6.276;2023-03-13T22:45:00;98880.0;;;13.4;65.8
67345;BME280;54230;52.402;6.276;2023-03-13T22:50:00;98860.0;;;13.5;65.5
67345;BME280;54230;52.402;6.276;2023-03-13T22:55:00;98860.0;;;13.6;65.5
67345;BME280;54230;52.402;6.276;2023-03-13T23:00:00;98850.0;;;13.6;65.6
67345;BME280;54230;52.402;6.276;2023-03-13T23:05:00;98850.0;;;13.6;66.0
67345;BME280;54230;52.402;6.276;2023-03-13T23:10:00;98840.0;;;13.7;65.9
67345;BME280;54230;52.402;6.276;2023-03-13T23:15:00;98830.0;;;13.6;66.3
67345;BME280;54230;52.402;6.276;2023-03-13T23:20:00;98840.0;;;13.6;66.5
67345;BME280;54230;52.402;6.276;2023-03-13T23:25:00;98840.0;;;13.5;66.8
67345;BME280;54230;52.402;6.276;2023-03-13T23:30:00;98840.0;;;13.4;67.7
67345;BME280;54230;52.402;6.276;2023-03-13T23:35:00;98830.0;;;13.6;67.8
67345;BME280;54230;52.402;6.276;2023-03-13T23:40:00;98820.0;;;13.7;68.4
67345;BME280;54230;52.402;6.276;2023-03-13T23:45:00;98820.0;;;13.7;68.8
67345;BME280;54230;52.402;6.276;2023-03-13T23:50:00;98810.0;;;13.6;69.9
67345;BME280;54230;52.402;6.276;2023-03-13T23:55:00;98800.0;;;13.6;71.2
